sensor_id;sensor_type;location;lat;lon;timestamp;P1;durP1;ratioP1;P2;durP2;ratioP2
11319;SDS011;5715;48.234;14.320;2022-11-09T00:02:04;10.63;;;6.47;;
11319;SDS011;5715;48.234;14.320;2022-11-09T00:04:51;7.40;;;5.33;;
11319;SDS011;5715;48.234;14.320;2022-11-09T00:07:39;10.40;;;6.27;;
11319;SDS011;5715;48.234;14.320;2022-11-09T00:10:26;7.63;;;5.57;;
11319;SDS011;5715;48.234;14.320;2022-11-09T00:13:14;7.93;;;5.30;;
11319;SDS011;5715;48.234;14.320;2022-11-09T00:16:02;9.00;;;4.17;;
11319;SDS011;5715;48.234;14.320;2022-11-09T00:18:51;8.70;;;5.77;;
11319;SDS011;5715;48.234;14.320;2022-11-09T00:21:39;7.40;;;5.20;;
11319;SDS011;5715;48.234;14.320;2022-11-09T00:24:27;8.47;;;5.30;;
11319;SDS011;5715;48.234;14.320;2022-11-09T00:27:14;8.27;;;4.53;;
11319;SDS011;5715;48.234;14.320;2022-11-09T00:30:03;6.47;;;5.20;;
11319;SDS011;5715;48.234;14.320;2022-11-09T00:32:52;6.17;;;5.13;;
11319;SDS011;5715;48.234;14.320;2022-11-09T00:35:39;20.10;;;5.57;;
11319;SDS011;5715;48.234;14.320;2022-11-09T00:38:27;6.47;;;5.13;;
11319;SDS011;5715;48.234;14.320;2022-11-09T00:41:14;8.30;;;5.40;;
11319;SDS011;5715;48.234;14.320;2022-11-09T00:44:02;14.27;;;5.53;;
11319;SDS011;5715;48.234;14.320;2022-11-09T00:46:50;7.00;;;4.07;;
11319;SDS011;5715;48.234;14.320;2022-11-09T00:49:37;8.50;;;6.17;;
11319;SDS011;5715;48.234;14.320;2022-11-09T00:52:25;9.67;;;5.60;;
11319;SDS011;5715;48.234;14.320;2022-11-09T00:55:12;5.37;;;4.23;;
11319;SDS011;5715;48.234;14.320;2022-11-09T00:58:00;6.73;;;4.10;;
11319;SDS011;5715;48.234;14.320;2022-11-09T01:00:48;18.67;;;4.57;;
11319;SDS011;5715;48.234;14.320;2022-11-09T01:03:36;5.83;;;3.80;;
11319;SDS011;5715;48.234;14.320;2022-11-09T01:06:25;5.13;;;3.93;;
11319;SDS011;5715;48.234;14.320;2022-11-09T01:09:13;6.10;;;4.23;;
11319;SDS011;5715;48.234;14.320;2022-11-09T01:12:00;5.37;;;3.87;;
11319;SDS011;5715;48.234;14.320;2022-11-09T01:14:48;6.93;;;4.63;;
11319;SDS011;5715;48.234;14.320;2022-11-09T01:17:35;10.70;;;5.27;;
11319;SDS011;5715;48.234;14.320;2022-11-09T01:20:22;9.57;;;4.50;;
11319;SDS011;5715;48.234;14.320;2022-11-09T01:23:10;6.90;;;5.20;;
11319;SDS011;5715;48.234;14.320;2022-11-09T01:26:01;9.33;;;5.60;;
11319;SDS011;5715;48.234;14.320;2022-11-09T01:28:52;8.90;;;4.93;;
11319;SDS011;5715;48.234;14.320;2022-11-09T01:31:39;8.07;;;4.30;;
11319;SDS011;5715;48.234;14.320;2022-11-09T01:34:27;6.67;;;5.10;;
11319;SDS011;5715;48.234;14.320;2022-11-09T01:37:15;5.33;;;4.53;;
11319;SDS011;5715;48.234;14.320;2022-11-09T01:40:02;5.63;;;4.13;;
11319;SDS011;5715;48.234;14.320;2022-11-09T01:42:51;9.23;;;5.13;;
11319;SDS011;5715;48.234;14.320;2022-11-09T01:45:38;8.13;;;4.57;;
11319;SDS011;5715;48.234;14.320;2022-11-09T01:48:45;4.37;;;3.87;;
11319;SDS011;5715;48.234;14.320;2022-11-09T01:51:45;8.63;;;4.87;;
11319;SDS011;5715;48.234;14.320;2022-11-09T01:54:43;6.50;;;5.23;;
11319;SDS011;5715;48.234;14.320;2022-11-09T01:57:42;8.93;;;4.20;;
11319;SDS011;5715;48.234;14.320;2022-11-09T02:00:44;6.13;;;5.07;;
11319;SDS011;5715;48.234;14.320;2022-11-09T02:03:37;6.73;;;4.70;;
11319;SDS011;5715;48.234;14.320;2022-11-09T02:06:41;6.00;;;4.47;;
11319;SDS011;5715;48.234;14.320;2022-11-09T02:09:48;13.40;;;5.27;;
11319;SDS011;5715;48.234;14.320;2022-11-09T02:12:56;4.47;;;3.17;;
11319;SDS011;5715;48.234;14.320;2022-11-09T02:15:46;14.03;;;5.17;;
11319;SDS011;5715;48.234;14.320;2022-11-09T02:18:35;6.20;;;4.50;;
11319;SDS011;5715;48.234;14.320;2022-11-09T02:21:38;3.57;;;3.10;;
11319;SDS011;5715;48.234;14.320;2022-11-09T02:24:26;6.73;;;4.93;;
11319;SDS011;5715;48.234;14.320;2022-11-09T02:27:14;5.80;;;4.90;;
11319;SDS011;5715;48.234;14.320;2022-11-09T02:30:02;4.93;;;4.17;;
11319;SDS011;5715;48.234;14.320;2022-11-09T02:32:52;5.63;;;4.97;;
11319;SDS011;5715;48.234;14.320;2022-11-09T02:35:40;6.37;;;5.03;;
11319;SDS011;5715;48.234;14.320;2022-11-09T02:38:27;6.33;;;5.00;;
11319;SDS011;5715;48.234;14.320;2022-11-09T02:41:14;8.53;;;4.57;;
11319;SDS011;5715;48.234;14.320;2022-11-09T02:44:03;3.90;;;3.30;;
11319;SDS011;5715;48.234;14.320;2022-11-09T02:46:51;7.10;;;4.50;;
11319;SDS011;5715;48.234;14.320;2022-11-09T02:49:38;10.83;;;5.23;;
11319;SDS011;5715;48.234;14.320;2022-11-09T02:52:26;6.27;;;4.57;;
11319;SDS011;5715;48.234;14.320;2022-11-09T02:55:13;5.10;;;3.80;;
11319;SDS011;5715;48.234;14.320;2022-11-09T02:58:01;8.00;;;4.33;;
11319;SDS011;5715;48.234;14.320;2022-11-09T03:00:48;6.03;;;3.83;;
11319;SDS011;5715;48.234;14.320;2022-11-09T03:03:36;5.33;;;4.43;;
11319;SDS011;5715;48.234;14.320;2022-11-09T03:06:23;7.40;;;4.40;;
11319;SDS011;5715;48.234;14.320;2022-11-09T03:09:20;5.80;;;3.83;;
11319;SDS011;5715;48.234;14.320;2022-11-09T03:12:07;5.73;;;3.63;;
11319;SDS011;5715;48.234;14.320;2022-11-09T03:15:21;6.73;;;3.50;;
11319;SDS011;5715;48.234;14.320;2022-11-09T03:18:09;7.20;;;4.10;;
11319;SDS011;5715;48.234;14.320;2022-11-09T03:21:00;6.63;;;3.10;;
11319;SDS011;5715;48.234;14.320;2022-11-09T03:23:49;6.20;;;3.03;;
11319;SDS011;5715;48.234;14.320;2022-11-09T03:26:39;5.40;;;3.97;;
11319;SDS011;5715;48.234;14.320;2022-11-09T03:29:27;8.60;;;4.77;;
11319;SDS011;5715;48.234;14.320;2022-11-09T03:32:14;6.37;;;4.63;;
11319;SDS011;5715;48.234;14.320;2022-11-09T03:35:02;4.03;;;3.57;;
11319;SDS011;5715;48.234;14.320;2022-11-09T03:37:50;4.00;;;2.87;;
11319;SDS011;5715;48.234;14.320;2022-11-09T03:40:38;6.67;;;4.20;;
11319;SDS011;5715;48.234;14.320;2022-11-09T03:43:26;10.67;;;4.87;;
11319;SDS011;5715;48.234;14.320;2022-11-09T03:46:17;4.70;;;4.07;;
11319;SDS011;5715;48.234;14.320;2022-11-09T03:49:04;6.77;;;4.20;;
11319;SDS011;5715;48.234;14.320;2022-11-09T03:51:52;6.83;;;4.20;;
11319;SDS011;5715;48.234;14.320;2022-11-09T03:54:40;6.17;;;4.53;;
11319;SDS011;5715;48.234;14.320;2022-11-09T03:57:27;4.80;;;3.47;;
11319;SDS011;5715;48.234;14.320;2022-11-09T04:00:16;5.47;;;4.27;;
11319;SDS011;5715;48.234;14.320;2022-11-09T04:03:07;7.43;;;4.13;;
11319;SDS011;5715;48.234;14.320;2022-11-09T04:05:56;3.90;;;3.27;;
11319;SDS011;5715;48.234;14.320;2022-11-09T04:08:44;4.27;;;3.87;;
11319;SDS011;5715;48.234;14.320;2022-11-09T04:11:37;6.07;;;4.23;;
11319;SDS011;5715;48.234;14.320;2022-11-09T04:14:24;6.30;;;4.20;;
11319;SDS011;5715;48.234;14.320;2022-11-09T04:17:12;4.13;;;3.67;;
11319;SDS011;5715;48.234;14.320;2022-11-09T04:19:59;7.83;;;3.17;;
11319;SDS011;5715;48.234;14.320;2022-11-09T04:22:57;4.70;;;2.83;;
11319;SDS011;5715;48.234;14.320;2022-11-09T04:25:48;5.23;;;3.03;;
11319;SDS011;5715;48.234;14.320;2022-11-09T04:28:35;4.63;;;3.47;;
11319;SDS011;5715;48.234;14.320;2022-11-09T04:31:22;5.33;;;3.13;;
11319;SDS011;5715;48.234;14.320;2022-11-09T04:34:14;3.67;;;3.37;;
11319;SDS011;5715;48.234;14.320;2022-11-09T04:37:03;7.43;;;3.20;;
11319;SDS011;5715;48.234;14.320;2022-11-09T04:39:50;5.80;;;2.57;;
11319;SDS011;5715;48.234;14.320;2022-11-09T04:42:38;7.77;;;4.33;;
11319;SDS011;5715;48.234;14.320;2022-11-09T04:45:25;6.17;;;3.87;;
11319;SDS011;5715;48.234;14.320;2022-11-09T04:48:13;4.30;;;3.27;;
11319;SDS011;5715;48.234;14.320;2022-11-09T04:51:01;3.50;;;2.90;;
11319;SDS011;5715;48.234;14.320;2022-11-09T04:53:53;3.80;;;3.13;;
11319;SDS011;5715;48.234;14.320;2022-11-09T04:56:42;5.50;;;3.67;;
11319;SDS011;5715;48.234;14.320;2022-11-09T04:59:29;4.80;;;3.33;;
11319;SDS011;5715;48.234;14.320;2022-11-09T05:02:16;5.47;;;3.20;;
11319;SDS011;5715;48.234;14.320;2022-11-09T05:05:04;7.03;;;4.03;;
11319;SDS011;5715;48.234;14.320;2022-11-09T05:07:52;4.50;;;4.10;;
11319;SDS011;5715;48.234;14.320;2022-11-09T05:10:40;4.83;;;4.03;;
11319;SDS011;5715;48.234;14.320;2022-11-09T05:13:27;7.43;;;4.37;;
11319;SDS011;5715;48.234;14.320;2022-11-09T05:16:15;3.47;;;3.17;;
11319;SDS011;5715;48.234;14.320;2022-11-09T05:19:03;6.57;;;4.87;;
11319;SDS011;5715;48.234;14.320;2022-11-09T05:21:51;7.83;;;4.57;;
11319;SDS011;5715;48.234;14.320;2022-11-09T05:24:38;5.83;;;4.57;;
11319;SDS011;5715;48.234;14.320;2022-11-09T05:27:25;4.87;;;3.60;;
11319;SDS011;5715;48.234;14.320;2022-11-09T05:30:13;7.77;;;5.03;;
11319;SDS011;5715;48.234;14.320;2022-11-09T05:33:01;4.73;;;3.60;;
11319;SDS011;5715;48.234;14.320;2022-11-09T05:35:49;5.60;;;3.30;;
11319;SDS011;5715;48.234;14.320;2022-11-09T05:38:36;6.17;;;4.47;;
11319;SDS011;5715;48.234;14.320;2022-11-09T05:41:24;7.50;;;3.63;;
11319;SDS011;5715;48.234;14.320;2022-11-09T05:44:12;6.73;;;4.37;;
11319;SDS011;5715;48.234;14.320;2022-11-09T05:46:59;5.70;;;4.10;;
11319;SDS011;5715;48.234;14.320;2022-11-09T05:49:47;5.10;;;3.97;;
11319;SDS011;5715;48.234;14.320;2022-11-09T05:52:34;6.13;;;3.93;;
11319;SDS011;5715;48.234;14.320;2022-11-09T05:55:22;8.90;;;3.40;;
11319;SDS011;5715;48.234;14.320;2022-11-09T05:58:10;5.47;;;3.43;;
11319;SDS011;5715;48.234;14.320;2022-11-09T06:00:57;4.63;;;3.33;;
11319;SDS011;5715;48.234;14.320;2022-11-09T06:03:45;7.40;;;3.90;;
11319;SDS011;5715;48.234;14.320;2022-11-09T06:06:33;6.13;;;2.47;;
11319;SDS011;5715;48.234;14.320;2022-11-09T06:09:21;7.43;;;4.37;;
11319;SDS011;5715;48.234;14.320;2022-11-09T06:12:08;4.10;;;3.70;;
11319;SDS011;5715;48.234;14.320;2022-11-09T06:14:56;4.07;;;3.23;;
11319;SDS011;5715;48.234;14.320;2022-11-09T06:17:43;5.07;;;3.53;;
11319;SDS011;5715;48.234;14.320;2022-11-09T06:20:37;7.20;;;4.27;;
11319;SDS011;5715;48.234;14.320;2022-11-09T06:23:25;3.40;;;2.37;;
11319;SDS011;5715;48.234;14.320;2022-11-09T06:26:14;4.43;;;3.97;;
11319;SDS011;5715;48.234;14.320;2022-11-09T06:29:02;3.57;;;2.53;;
11319;SDS011;5715;48.234;14.320;2022-11-09T06:31:51;9.07;;;4.17;;
11319;SDS011;5715;48.234;14.320;2022-11-09T06:34:39;13.83;;;4.83;;
11319;SDS011;5715;48.234;14.320;2022-11-09T06:37:28;5.23;;;3.57;;
11319;SDS011;5715;48.234;14.320;2022-11-09T06:40:16;3.77;;;3.40;;
11319;SDS011;5715;48.234;14.320;2022-11-09T06:43:03;4.33;;;3.50;;
11319;SDS011;5715;48.234;14.320;2022-11-09T06:45:52;9.90;;;4.43;;
11319;SDS011;5715;48.234;14.320;2022-11-09T06:48:40;5.53;;;4.13;;
11319;SDS011;5715;48.234;14.320;2022-11-09T06:51:28;5.50;;;3.87;;
11319;SDS011;5715;48.234;14.320;2022-11-09T06:54:15;7.63;;;4.50;;
11319;SDS011;5715;48.234;14.320;2022-11-09T06:57:03;4.50;;;3.60;;
11319;SDS011;5715;48.234;14.320;2022-11-09T06:59:50;4.10;;;3.03;;
11319;SDS011;5715;48.234;14.320;2022-11-09T07:02:40;6.83;;;4.23;;
11319;SDS011;5715;48.234;14.320;2022-11-09T07:05:28;6.93;;;3.80;;
11319;SDS011;5715;48.234;14.320;2022-11-09T07:08:16;4.30;;;2.60;;
11319;SDS011;5715;48.234;14.320;2022-11-09T07:11:06;5.90;;;3.73;;
11319;SDS011;5715;48.234;14.320;2022-11-09T07:14:05;5.77;;;3.33;;
11319;SDS011;5715;48.234;14.320;2022-11-09T07:16:52;6.00;;;2.77;;
11319;SDS011;5715;48.234;14.320;2022-11-09T07:19:40;6.97;;;4.07;;
11319;SDS011;5715;48.234;14.320;2022-11-09T07:22:27;6.93;;;3.33;;
11319;SDS011;5715;48.234;14.320;2022-11-09T07:25:15;8.87;;;3.87;;
11319;SDS011;5715;48.234;14.320;2022-11-09T07:28:04;5.53;;;3.70;;
11319;SDS011;5715;48.234;14.320;2022-11-09T07:30:56;3.87;;;3.43;;
11319;SDS011;5715;48.234;14.320;2022-11-09T07:33:44;5.83;;;3.97;;
11319;SDS011;5715;48.234;14.320;2022-11-09T07:36:32;5.37;;;3.63;;
11319;SDS011;5715;48.234;14.320;2022-11-09T07:39:22;4.17;;;2.90;;
11319;SDS011;5715;48.234;14.320;2022-11-09T07:42:09;4.53;;;3.10;;
11319;SDS011;5715;48.234;14.320;2022-11-09T07:44:57;7.03;;;4.03;;
11319;SDS011;5715;48.234;14.320;2022-11-09T07:47:44;4.03;;;3.37;;
11319;SDS011;5715;48.234;14.320;2022-11-09T07:50:33;5.07;;;3.47;;
11319;SDS011;5715;48.234;14.320;2022-11-09T07:53:22;4.97;;;3.40;;
11319;SDS011;5715;48.234;14.320;2022-11-09T07:56:09;6.47;;;3.27;;
11319;SDS011;5715;48.234;14.320;2022-11-09T07:58:57;4.03;;;2.57;;
11319;SDS011;5715;48.234;14.320;2022-11-09T08:01:44;3.30;;;3.00;;
11319;SDS011;5715;48.234;14.320;2022-11-09T08:04:32;4.30;;;3.23;;
11319;SDS011;5715;48.234;14.320;2022-11-09T08:07:19;4.70;;;3.10;;
11319;SDS011;5715;48.234;14.320;2022-11-09T08:10:09;3.97;;;2.97;;
11319;SDS011;5715;48.234;14.320;2022-11-09T08:13:30;6.37;;;3.40;;
11319;SDS011;5715;48.234;14.320;2022-11-09T08:16:11;3.27;;;2.97;;
11319;SDS011;5715;48.234;14.320;2022-11-09T08:18:58;4.43;;;3.00;;
11319;SDS011;5715;48.234;14.320;2022-11-09T08:21:46;6.13;;;3.13;;
11319;SDS011;5715;48.234;14.320;2022-11-09T08:24:33;7.03;;;3.67;;
11319;SDS011;5715;48.234;14.320;2022-11-09T08:27:21;5.23;;;3.37;;
11319;SDS011;5715;48.234;14.320;2022-11-09T08:30:13;7.10;;;3.47;;
11319;SDS011;5715;48.234;14.320;2022-11-09T08:33:07;3.37;;;2.90;;
11319;SDS011;5715;48.234;14.320;2022-11-09T08:35:55;7.70;;;3.67;;
11319;SDS011;5715;48.234;14.320;2022-11-09T08:38:43;5.43;;;3.67;;
11319;SDS011;5715;48.234;14.320;2022-11-09T08:41:31;7.73;;;4.07;;
11319;SDS011;5715;48.234;14.320;2022-11-09T08:44:19;5.03;;;3.20;;
11319;SDS011;5715;48.234;14.320;2022-11-09T08:47:08;7.13;;;3.87;;
11319;SDS011;5715;48.234;14.320;2022-11-09T08:49:55;4.57;;;3.27;;
11319;SDS011;5715;48.234;14.320;2022-11-09T08:52:43;6.80;;;2.93;;
11319;SDS011;5715;48.234;14.320;2022-11-09T08:55:30;7.20;;;3.53;;
11319;SDS011;5715;48.234;14.320;2022-11-09T08:58:19;10.60;;;6.83;;
11319;SDS011;5715;48.234;14.320;2022-11-09T09:01:08;4.90;;;3.63;;
11319;SDS011;5715;48.234;14.320;2022-11-09T09:04:02;4.63;;;3.63;;
11319;SDS011;5715;48.234;14.320;2022-11-09T09:06:49;5.17;;;3.33;;
11319;SDS011;5715;48.234;14.320;2022-11-09T09:09:38;4.50;;;3.73;;
11319;SDS011;5715;48.234;14.320;2022-11-09T09:12:25;5.43;;;2.87;;
11319;SDS011;5715;48.234;14.320;2022-11-09T09:15:13;9.37;;;3.93;;
11319;SDS011;5715;48.234;14.320;2022-11-09T09:18:01;5.10;;;3.90;;
11319;SDS011;5715;48.234;14.320;2022-11-09T09:20:50;3.33;;;2.80;;
11319;SDS011;5715;48.234;14.320;2022-11-09T09:23:37;5.43;;;3.53;;
11319;SDS011;5715;48.234;14.320;2022-11-09T09:26:25;6.47;;;3.43;;
11319;SDS011;5715;48.234;14.320;2022-11-09T09:29:12;4.73;;;3.67;;
11319;SDS011;5715;48.234;14.320;2022-11-09T09:32:00;6.57;;;4.90;;
11319;SDS011;5715;48.234;14.320;2022-11-09T09:34:47;4.77;;;3.50;;
11319;SDS011;5715;48.234;14.320;2022-11-09T09:37:35;5.77;;;3.10;;
11319;SDS011;5715;48.234;14.320;2022-11-09T09:40:24;2.97;;;2.70;;
11319;SDS011;5715;48.234;14.320;2022-11-09T09:43:30;2.50;;;2.23;;
11319;SDS011;5715;48.234;14.320;2022-11-09T09:46:43;3.13;;;2.67;;
11319;SDS011;5715;48.234;14.320;2022-11-09T09:49:54;3.60;;;2.80;;
11319;SDS011;5715;48.234;14.320;2022-11-09T09:52:57;6.03;;;4.47;;
11319;SDS011;5715;48.234;14.320;2022-11-09T09:56:17;10.13;;;3.50;;
11319;SDS011;5715;48.234;14.320;2022-11-09T09:59:39;2.77;;;2.30;;
11319;SDS011;5715;48.234;14.320;2022-11-09T10:02:30;6.90;;;2.90;;
11319;SDS011;5715;48.234;14.320;2022-11-09T10:05:36;4.83;;;2.60;;
11319;SDS011;5715;48.234;14.320;2022-11-09T10:11:55;3.97;;;3.17;;
11319;SDS011;5715;48.234;14.320;2022-11-09T10:22:14;5.63;;;3.50;;
11319;SDS011;5715;48.234;14.320;2022-11-09T10:25:32;3.57;;;2.83;;
11319;SDS011;5715;48.234;14.320;2022-11-09T10:28:45;7.13;;;2.67;;
11319;SDS011;5715;48.234;14.320;2022-11-09T10:35:13;4.40;;;3.43;;
11319;SDS011;5715;48.234;14.320;2022-11-09T10:38:17;6.97;;;3.83;;
11319;SDS011;5715;48.234;14.320;2022-11-09T10:41:30;6.67;;;4.00;;
11319;SDS011;5715;48.234;14.320;2022-11-09T10:44:27;4.87;;;3.30;;
11319;SDS011;5715;48.234;14.320;2022-11-09T10:47:15;5.37;;;3.13;;
11319;SDS011;5715;48.234;14.320;2022-11-09T10:50:05;4.93;;;3.53;;
11319;SDS011;5715;48.234;14.320;2022-11-09T10:56:11;7.43;;;3.83;;
11319;SDS011;5715;48.234;14.320;2022-11-09T10:59:28;3.93;;;2.97;;
11319;SDS011;5715;48.234;14.320;2022-11-09T11:05:28;4.47;;;3.23;;
11319;SDS011;5715;48.234;14.320;2022-11-09T11:08:36;5.17;;;3.40;;
11319;SDS011;5715;48.234;14.320;2022-11-09T11:11:27;4.17;;;3.20;;
11319;SDS011;5715;48.234;14.320;2022-11-09T11:17:26;4.87;;;3.70;;
11319;SDS011;5715;48.234;14.320;2022-11-09T11:20:32;5.50;;;3.57;;
11319;SDS011;5715;48.234;14.320;2022-11-09T11:23:23;5.97;;;2.77;;
11319;SDS011;5715;48.234;14.320;2022-11-09T11:26:22;6.50;;;3.43;;
11319;SDS011;5715;48.234;14.320;2022-11-09T11:32:17;4.80;;;3.37;;
11319;SDS011;5715;48.234;14.320;2022-11-09T11:36:10;5.30;;;3.63;;
11319;SDS011;5715;48.234;14.320;2022-11-09T11:38:44;4.93;;;2.70;;
11319;SDS011;5715;48.234;14.320;2022-11-09T11:45:15;4.00;;;2.30;;
11319;SDS011;5715;48.234;14.320;2022-11-09T11:58:28;4.53;;;3.10;;
11319;SDS011;5715;48.234;14.320;2022-11-09T12:08:06;5.60;;;3.10;;
11319;SDS011;5715;48.234;14.320;2022-11-09T12:11:31;5.57;;;3.20;;
11319;SDS011;5715;48.234;14.320;2022-11-09T12:14:48;2.47;;;2.23;;
11319;SDS011;5715;48.234;14.320;2022-11-09T12:18:02;4.80;;;3.43;;
11319;SDS011;5715;48.234;14.320;2022-11-09T12:21:25;5.10;;;3.13;;
11319;SDS011;5715;48.234;14.320;2022-11-09T12:30:52;6.90;;;3.00;;
11319;SDS011;5715;48.234;14.320;2022-11-09T12:34:05;5.27;;;3.70;;
11319;SDS011;5715;48.234;14.320;2022-11-09T12:37:36;4.20;;;2.87;;
11319;SDS011;5715;48.234;14.320;2022-11-09T12:40:37;4.37;;;3.20;;
11319;SDS011;5715;48.234;14.320;2022-11-09T12:43:44;5.87;;;3.17;;
11319;SDS011;5715;48.234;14.320;2022-11-09T12:47:02;4.50;;;2.53;;
11319;SDS011;5715;48.234;14.320;2022-11-09T12:50:00;3.30;;;2.40;;
11319;SDS011;5715;48.234;14.320;2022-11-09T12:52:49;4.57;;;2.63;;
11319;SDS011;5715;48.234;14.320;2022-11-09T12:58:27;6.27;;;2.70;;
11319;SDS011;5715;48.234;14.320;2022-11-09T13:04:21;8.90;;;2.70;;
11319;SDS011;5715;48.234;14.320;2022-11-09T13:07:18;5.10;;;3.63;;
11319;SDS011;5715;48.234;14.320;2022-11-09T13:10:33;3.73;;;2.77;;
11319;SDS011;5715;48.234;14.320;2022-11-09T13:13:23;5.93;;;4.03;;
11319;SDS011;5715;48.234;14.320;2022-11-09T13:16:29;5.03;;;3.63;;
11319;SDS011;5715;48.234;14.320;2022-11-09T13:20:08;4.73;;;3.30;;
11319;SDS011;5715;48.234;14.320;2022-11-09T13:25:33;5.80;;;2.67;;
11319;SDS011;5715;48.234;14.320;2022-11-09T13:28:40;4.03;;;3.03;;
11319;SDS011;5715;48.234;14.320;2022-11-09T13:32:22;5.33;;;3.17;;
11319;SDS011;5715;48.234;14.320;2022-11-09T13:34:48;3.43;;;2.33;;
11319;SDS011;5715;48.234;14.320;2022-11-09T13:37:46;6.33;;;2.87;;
11319;SDS011;5715;48.234;14.320;2022-11-09T13:43:31;4.70;;;3.20;;
11319;SDS011;5715;48.234;14.320;2022-11-09T13:46:25;3.27;;;2.97;;
11319;SDS011;5715;48.234;14.320;2022-11-09T13:52:46;5.90;;;2.83;;
11319;SDS011;5715;48.234;14.320;2022-11-09T13:55:39;5.47;;;3.63;;
11319;SDS011;5715;48.234;14.320;2022-11-09T13:58:30;7.00;;;3.30;;
11319;SDS011;5715;48.234;14.320;2022-11-09T14:01:25;4.80;;;2.20;;
11319;SDS011;5715;48.234;14.320;2022-11-09T14:04:35;4.93;;;3.17;;
11319;SDS011;5715;48.234;14.320;2022-11-09T14:07:25;6.17;;;3.40;;
11319;SDS011;5715;48.234;14.320;2022-11-09T14:10:24;4.90;;;3.23;;
11319;SDS011;5715;48.234;14.320;2022-11-09T14:23:17;13.47;;;4.03;;
11319;SDS011;5715;48.234;14.320;2022-11-09T14:26:08;5.83;;;3.17;;
11319;SDS011;5715;48.234;14.320;2022-11-09T14:29:25;5.77;;;3.87;;
11319;SDS011;5715;48.234;14.320;2022-11-09T14:41:16;5.60;;;4.17;;
11319;SDS011;5715;48.234;14.320;2022-11-09T14:44:12;7.17;;;3.97;;
11319;SDS011;5715;48.234;14.320;2022-11-09T14:47:13;3.93;;;3.20;;
11319;SDS011;5715;48.234;14.320;2022-11-09T14:50:24;6.30;;;5.13;;
11319;SDS011;5715;48.234;14.320;2022-11-09T14:53:24;4.53;;;3.40;;
11319;SDS011;5715;48.234;14.320;2022-11-09T14:56:17;21.80;;;4.30;;
11319;SDS011;5715;48.234;14.320;2022-11-09T14:59:10;4.70;;;3.17;;
11319;SDS011;5715;48.234;14.320;2022-11-09T15:02:02;7.27;;;3.60;;
11319;SDS011;5715;48.234;14.320;2022-11-09T15:04:58;4.00;;;3.30;;
11319;SDS011;5715;48.234;14.320;2022-11-09T15:07:50;10.10;;;6.07;;
11319;SDS011;5715;48.234;14.320;2022-11-09T15:10:38;13.80;;;5.73;;
11319;SDS011;5715;48.234;14.320;2022-11-09T15:13:27;8.73;;;4.77;;
11319;SDS011;5715;48.234;14.320;2022-11-09T15:16:26;10.67;;;5.53;;
11319;SDS011;5715;48.234;14.320;2022-11-09T15:19:20;11.60;;;6.23;;
11319;SDS011;5715;48.234;14.320;2022-11-09T15:28:32;10.40;;;7.03;;
11319;SDS011;5715;48.234;14.320;2022-11-09T15:31:32;7.20;;;5.13;;
11319;SDS011;5715;48.234;14.320;2022-11-09T15:34:22;11.57;;;6.73;;
11319;SDS011;5715;48.234;14.320;2022-11-09T15:40:18;10.97;;;5.67;;
11319;SDS011;5715;48.234;14.320;2022-11-09T15:43:08;13.87;;;5.97;;
11319;SDS011;5715;48.234;14.320;2022-11-09T15:45:56;11.17;;;6.57;;
11319;SDS011;5715;48.234;14.320;2022-11-09T15:48:46;8.83;;;5.93;;
11319;SDS011;5715;48.234;14.320;2022-11-09T15:51:34;10.10;;;6.17;;
11319;SDS011;5715;48.234;14.320;2022-11-09T15:54:22;15.10;;;7.60;;
11319;SDS011;5715;48.234;14.320;2022-11-09T15:57:12;10.20;;;7.20;;
11319;SDS011;5715;48.234;14.320;2022-11-09T16:00:04;9.43;;;6.33;;
11319;SDS011;5715;48.234;14.320;2022-11-09T16:03:00;9.43;;;6.63;;
11319;SDS011;5715;48.234;14.320;2022-11-09T16:05:48;9.47;;;5.70;;
11319;SDS011;5715;48.234;14.320;2022-11-09T16:08:35;12.27;;;6.77;;
11319;SDS011;5715;48.234;14.320;2022-11-09T16:11:23;7.77;;;5.70;;
11319;SDS011;5715;48.234;14.320;2022-11-09T16:14:10;10.03;;;6.33;;
11319;SDS011;5715;48.234;14.320;2022-11-09T16:16:58;9.00;;;6.40;;
11319;SDS011;5715;48.234;14.320;2022-11-09T16:19:46;12.10;;;7.03;;
11319;SDS011;5715;48.234;14.320;2022-11-09T16:22:33;11.80;;;6.97;;
11319;SDS011;5715;48.234;14.320;2022-11-09T16:25:21;10.93;;;5.93;;
11319;SDS011;5715;48.234;14.320;2022-11-09T16:28:09;8.93;;;6.57;;
11319;SDS011;5715;48.234;14.320;2022-11-09T16:30:56;16.80;;;6.20;;
11319;SDS011;5715;48.234;14.320;2022-11-09T16:33:44;8.17;;;6.50;;
11319;SDS011;5715;48.234;14.320;2022-11-09T16:36:31;12.33;;;7.27;;
11319;SDS011;5715;48.234;14.320;2022-11-09T16:39:19;6.00;;;4.47;;
11319;SDS011;5715;48.234;14.320;2022-11-09T16:42:07;8.57;;;5.17;;
11319;SDS011;5715;48.234;14.320;2022-11-09T16:45:02;10.43;;;5.27;;
11319;SDS011;5715;48.234;14.320;2022-11-09T16:47:56;7.00;;;5.80;;
11319;SDS011;5715;48.234;14.320;2022-11-09T16:50:44;11.87;;;7.27;;
11319;SDS011;5715;48.234;14.320;2022-11-09T16:53:32;14.77;;;6.07;;
11319;SDS011;5715;48.234;14.320;2022-11-09T16:56:20;7.10;;;5.93;;
11319;SDS011;5715;48.234;14.320;2022-11-09T16:59:07;7.67;;;6.17;;
11319;SDS011;5715;48.234;14.320;2022-11-09T17:01:56;6.97;;;4.97;;
11319;SDS011;5715;48.234;14.320;2022-11-09T17:04:45;7.00;;;5.40;;
11319;SDS011;5715;48.234;14.320;2022-11-09T17:07:32;8.00;;;5.13;;
11319;SDS011;5715;48.234;14.320;2022-11-09T17:10:28;5.60;;;4.97;;
11319;SDS011;5715;48.234;14.320;2022-11-09T17:13:15;7.40;;;6.10;;
11319;SDS011;5715;48.234;14.320;2022-11-09T17:16:04;13.10;;;7.70;;
11319;SDS011;5715;48.234;14.320;2022-11-09T17:18:57;6.30;;;4.57;;
11319;SDS011;5715;48.234;14.320;2022-11-09T17:21:45;5.20;;;4.23;;
11319;SDS011;5715;48.234;14.320;2022-11-09T17:24:33;10.57;;;6.43;;
11319;SDS011;5715;48.234;14.320;2022-11-09T17:27:21;6.27;;;4.93;;
11319;SDS011;5715;48.234;14.320;2022-11-09T17:30:08;9.37;;;5.13;;
11319;SDS011;5715;48.234;14.320;2022-11-09T17:32:57;6.30;;;4.73;;
11319;SDS011;5715;48.234;14.320;2022-11-09T17:35:45;7.53;;;5.47;;
11319;SDS011;5715;48.234;14.320;2022-11-09T17:38:32;9.67;;;5.73;;
11319;SDS011;5715;48.234;14.320;2022-11-09T17:41:21;8.60;;;5.47;;
11319;SDS011;5715;48.234;14.320;2022-11-09T17:44:08;7.47;;;4.83;;
11319;SDS011;5715;48.234;14.320;2022-11-09T17:46:56;10.50;;;6.50;;
11319;SDS011;5715;48.234;14.320;2022-11-09T17:49:44;7.63;;;5.60;;
11319;SDS011;5715;48.234;14.320;2022-11-09T17:52:32;11.87;;;5.97;;
11319;SDS011;5715;48.234;14.320;2022-11-09T17:55:20;11.30;;;6.37;;
11319;SDS011;5715;48.234;14.320;2022-11-09T17:58:08;5.90;;;4.90;;
11319;SDS011;5715;48.234;14.320;2022-11-09T18:01:08;6.27;;;5.03;;
11319;SDS011;5715;48.234;14.320;2022-11-09T18:04:07;6.77;;;4.57;;
11319;SDS011;5715;48.234;14.320;2022-11-09T18:06:56;8.10;;;5.53;;
11319;SDS011;5715;48.234;14.320;2022-11-09T18:09:44;8.70;;;4.83;;
11319;SDS011;5715;48.234;14.320;2022-11-09T18:12:32;7.53;;;5.27;;
11319;SDS011;5715;48.234;14.320;2022-11-09T18:15:20;7.73;;;4.60;;
11319;SDS011;5715;48.234;14.320;2022-11-09T18:18:09;11.30;;;5.97;;
11319;SDS011;5715;48.234;14.320;2022-11-09T18:21:03;11.07;;;6.13;;
11319;SDS011;5715;48.234;14.320;2022-11-09T18:23:56;7.77;;;4.83;;
11319;SDS011;5715;48.234;14.320;2022-11-09T18:26:44;7.13;;;4.43;;
11319;SDS011;5715;48.234;14.320;2022-11-09T18:29:32;6.63;;;5.20;;
11319;SDS011;5715;48.234;14.320;2022-11-09T18:32:23;7.53;;;4.73;;
11319;SDS011;5715;48.234;14.320;2022-11-09T18:35:11;9.67;;;5.30;;
11319;SDS011;5715;48.234;14.320;2022-11-09T18:37:59;9.43;;;6.27;;
11319;SDS011;5715;48.234;14.320;2022-11-09T18:41:00;6.67;;;4.17;;
11319;SDS011;5715;48.234;14.320;2022-11-09T18:43:55;8.07;;;4.90;;
11319;SDS011;5715;48.234;14.320;2022-11-09T18:46:44;6.63;;;5.53;;
11319;SDS011;5715;48.234;14.320;2022-11-09T18:49:33;5.37;;;4.63;;
11319;SDS011;5715;48.234;14.320;2022-11-09T18:52:21;8.23;;;6.13;;